Terminal Aerodrome Forecast
Issued by NWS

Home | Current Version | Previous Version | Text Only | Print | Product List | Glossary On
Versions: 1 2 3 4 5 6 7 8 9 10 11 12
000
FTUS43 KPAH 221720
TAFCGI
TAF
KCGI 221720Z 2218/2318 13005KT P6SM BKN250
     FM230000 VRB02KT P6SM SCT250
     FM231500 19004KT P6SM SCT100 BKN250=

USA.gov is the U.S. government's official web portal to all federal, state and local government web resources and services.